Time;durP1;ratioP1;P1;durP2;ratioP2;P2;SDS_P1;SDS_P2;PMS_P1;PMS_P2;Temp;Humidity;BMP_temperature;BMP_pressure;BME280_temperature;BME280_humidity;BME280_pressure;Samples;Min_cycle;Max_cycle;Signal;HPM_P1;HPM_P2
2023/02/12 00:01:08;;;;;;;7.75;4.35;;;;;;;8.61;69.34;102876.34;5085095;28;20098;-45
2023/02/12 00:03:36;;;;;;;8.00;4.10;;;;;;;8.61;69.66;102881.84;5088546;28;20040;-44
2023/02/12 00:06:04;;;;;;;9.02;3.25;;;;;;;8.61;69.73;102873.56;5089179;28;20056;-45
2023/02/12 00:08:30;;;;;;;3.83;2.63;;;;;;;8.62;69.68;102879.91;5091559;28;20512;-45
2023/02/12 00:10:57;;;;;;;3.17;2.00;;;;;;;8.59;69.74;102878.56;5091617;28;20050;-45
2023/02/12 00:13:24;;;;;;;2.70;2.08;;;;;;;8.57;69.69;102867.81;5091344;28;20595;-49
2023/02/12 00:15:51;;;;;;;3.53;1.85;;;;;;;8.58;69.75;102876.88;5092319;28;20113;-45
2023/02/12 00:18:18;;;;;;;1.60;1.38;;;;;;;8.58;69.70;102885.16;5091464;28;20428;-44
2023/02/12 00:20:45;;;;;;;3.15;2.13;;;;;;;8.57;69.75;102883.53;5092295;28;20486;-46
2023/02/12 00:23:12;;;;;;;8.75;1.73;;;;;;;8.55;69.92;102886.56;5091259;28;20127;-45
2023/02/12 00:25:42;;;;;;;4.25;2.25;;;;;;;8.55;69.94;102885.75;5087865;28;20102;-45
2023/02/12 00:28:08;;;;;;;3.90;2.00;;;;;;;8.55;69.93;102883.00;5089369;28;20388;-45
2023/02/12 00:30:35;;;;;;;2.50;1.70;;;;;;;8.56;69.93;102884.63;5073415;28;20046;-44
2023/02/12 00:33:02;;;;;;;1.83;1.60;;;;;;;8.55;69.99;102880.22;5091584;28;20040;-44
2023/02/12 00:35:29;;;;;;;2.53;1.33;;;;;;;8.54;69.69;102870.28;5091226;28;20062;-52
2023/02/12 00:37:56;;;;;;;1.98;1.27;;;;;;;8.54;70.01;102879.41;5091871;28;20044;-45
2023/02/12 00:40:23;;;;;;;2.92;0.90;;;;;;;8.53;69.97;102877.72;5090834;28;20087;-48
2023/02/12 00:42:49;;;;;;;2.28;1.08;;;;;;;8.53;70.08;102876.91;5090946;28;20027;-48
2023/02/12 00:45:16;;;;;;;1.92;1.00;;;;;;;8.53;70.03;102872.22;5090882;28;20043;-49
2023/02/12 00:47:43;;;;;;;2.92;1.10;;;;;;;8.54;69.91;102878.56;5084981;28;20044;-45
2023/02/12 00:50:10;;;;;;;2.70;1.52;;;;;;;8.54;70.06;102873.03;5084090;28;20060;-45
2023/02/12 00:52:37;;;;;;;1.10;0.82;;;;;;;8.54;70.15;102873.88;5079433;28;20545;-48
2023/02/12 00:55:04;;;;;;;2.47;1.10;;;;;;;8.55;70.19;102874.72;5091380;28;20044;-49
2023/02/12 00:57:32;;;;;;;2.95;0.95;;;;;;;8.53;70.21;102866.69;5090929;28;20476;-46
2023/02/12 00:59:59;;;;;;;2.97;1.33;;;;;;;8.53;70.22;102869.44;5090907;28;20493;-45
2023/02/12 01:02:25;;;;;;;2.63;1.40;;;;;;;8.53;70.25;102858.41;5072239;28;20470;-44
2023/02/12 01:04:52;;;;;;;2.00;0.80;;;;;;;8.52;70.31;102862.25;5090456;28;20048;-45
2023/02/12 01:07:19;;;;;;;2.25;1.23;;;;;;;8.53;70.32;102863.09;5090606;28;20036;-45
2023/02/12 01:09:46;;;;;;;1.85;0.82;;;;;;;8.52;70.39;102853.19;5090654;28;20498;-44
2023/02/12 01:12:12;;;;;;;1.92;1.40;;;;;;;8.53;70.22;102854.81;5101974;28;20393;-46
2023/02/12 01:14:39;;;;;;;5.75;1.30;;;;;;;8.53;70.31;102860.34;5090414;28;20448;-44
2023/02/12 01:17:08;;;;;;;2.05;1.15;;;;;;;8.52;70.41;102853.19;5089957;28;20075;-45
2023/02/12 01:19:35;;;;;;;3.63;1.13;;;;;;;8.52;70.41;102853.19;5072826;28;20131;-52
2023/02/12 01:22:02;;;;;;;1.55;1.10;;;;;;;8.53;70.46;102850.13;5055633;28;20043;-45
2023/02/12 01:24:28;;;;;;;1.55;0.93;;;;;;;8.53;70.36;102852.88;5089906;28;20079;-44
2023/02/12 01:26:55;;;;;;;5.05;0.93;;;;;;;8.54;70.53;102845.44;5090175;28;20087;-45
2023/02/12 01:29:22;;;;;;;1.80;1.08;;;;;;;8.53;70.51;102843.78;5090745;28;20070;-45
2023/02/12 01:31:49;;;;;;;2.22;1.15;;;;;;;8.54;70.46;102834.41;5090283;28;20444;-50
2023/02/12 01:34:16;;;;;;;1.42;1.02;;;;;;;8.53;70.50;102836.31;5089912;28;20054;-45
2023/02/12 01:36:42;;;;;;;2.22;1.52;;;;;;;8.53;70.71;102832.72;5090222;28;20582;-44
2023/02/12 01:39:10;;;;;;;3.95;1.08;;;;;;;8.52;70.68;102842.13;5090171;28;20082;-45
2023/02/12 01:41:41;;;;;;;2.80;1.23;;;;;;;8.51;70.68;102834.94;5090015;28;20050;-45
2023/02/12 01:44:18;;;;;;;4.13;1.65;;;;;;;8.50;70.85;102830.53;5090238;28;20486;-44
2023/02/12 01:46:46;;;;;;;1.77;1.40;;;;;;;8.45;70.97;102830.53;5080191;28;20067;-45
2023/02/12 01:49:20;;;;;;;2.75;1.48;;;;;;;8.43;70.95;102822.56;5089528;28;20093;-44
2023/02/12 01:51:51;;;;;;;1.90;1.20;;;;;;;8.45;71.11;102827.78;5079069;28;20079;-51
2023/02/12 01:54:25;;;;;;;3.67;1.35;;;;;;;8.45;71.19;102820.34;5071585;28;20059;-45
2023/02/12 01:56:53;;;;;;;3.78;1.20;;;;;;;8.46;71.15;102823.94;5089374;28;20136;-50
2023/02/12 01:59:23;;;;;;;2.88;1.15;;;;;;;8.45;71.42;102825.03;5089685;28;20043;-48
2023/02/12 02:01:50;;;;;;;1.40;1.10;;;;;;;8.44;71.28;102815.09;5071668;28;20056;-52
2023/02/12 02:04:22;;;;;;;4.50;1.95;;;;;;;8.42;71.59;102817.28;5089523;28;20036;-45
2023/02/12 02:07:01;;;;;;;4.13;2.78;;;;;;;8.40;71.43;102802.97;5071875;28;20420;-46
2023/02/12 02:09:32;;;;;;;5.38;1.50;;;;;;;8.36;71.72;102805.47;5089578;28;20640;-52
2023/02/12 02:14:47;;;;;;;4.05;2.15;;;;;;;8.34;71.91;102806.84;5089697;28;20577;-50
2023/02/12 02:17:50;;;;;;;5.82;1.70;;;;;;;8.35;71.92;102802.97;5081974;28;20053;-45
2023/02/12 02:20:48;;;;;;;4.32;1.42;;;;;;;8.34;71.96;102798.59;5089008;28;20036;-44
2023/02/12 02:23:21;;;;;;;3.00;1.33;;;;;;;8.34;71.97;102801.34;5089252;28;20097;-51
2023/02/12 02:25:56;;;;;;;1.35;1.00;;;;;;;8.31;71.86;102796.38;5089269;28;20401;-45
2023/02/12 02:28:42;;;;;;;1.13;0.68;;;;;;;8.27;71.89;102798.88;5088634;28;20097;-47
2023/02/12 02:31:17;;;;;;;1.38;0.90;;;;;;;8.26;72.00;102793.59;5088950;28;20047;-44
2023/02/12 02:33:50;;;;;;;4.38;0.73;;;;;;;8.25;71.95;102797.47;5089108;28;20046;-44
2023/02/12 02:36:40;;;;;;;1.90;0.88;;;;;;;8.26;71.94;102796.38;5089609;28;20044;-48
2023/02/12 02:39:52;;;;;;;2.17;0.70;;;;;;;8.25;71.70;102797.47;5088906;28;20047;-45
2023/02/12 02:42:26;;;;;;;3.95;1.60;;;;;;;8.24;71.83;102796.63;5088818;28;20093;-52
2023/02/12 02:45:12;;;;;;;2.95;1.15;;;;;;;8.24;71.76;102807.66;5089101;28;20432;-44
2023/02/12 02:47:44;;;;;;;3.50;1.58;;;;;;;8.23;71.72;102799.69;5088777;28;20048;-45
2023/02/12 02:50:16;;;;;;;2.97;1.65;;;;;;;8.21;71.85;102802.69;5089059;28;20044;-46
2023/02/12 02:53:05;;;;;;;4.55;1.15;;;;;;;8.21;72.06;102812.91;5077966;28;20040;-45
2023/02/12 02:55:39;;;;;;;1.98;1.10;;;;;;;8.19;71.93;102810.44;5088472;28;20051;-45
2023/02/12 02:58:13;;;;;;;1.95;0.90;;;;;;;8.19;71.99;102807.69;5088728;28;20040;-49
2023/02/12 03:00:48;;;;;;;4.07;1.10;;;;;;;8.19;72.12;102804.91;5111584;22;20414;-46
2023/02/12 03:03:24;;;;;;;1.27;0.82;;;;;;;8.20;72.08;102814.03;5034559;28;20482;-45
2023/02/12 03:05:58;;;;;;;2.25;0.80;;;;;;;8.19;72.06;102806.84;5036487;28;20049;-46
2023/02/12 03:08:33;;;;;;;2.22;1.00;;;;;;;8.19;72.11;102809.59;5048479;28;20049;-45
2023/02/12 03:11:30;;;;;;;2.10;1.10;;;;;;;8.19;72.29;102801.31;5048893;28;20099;-46
2023/02/12 03:14:11;;;;;;;2.53;1.13;;;;;;;8.18;72.10;102794.97;5048092;28;20079;-48
2023/02/12 03:16:47;;;;;;;3.20;0.90;;;;;;;8.18;72.31;102794.16;5047734;28;20049;-50
2023/02/12 03:19:21;;;;;;;1.92;1.08;;;;;;;8.17;72.27;102789.75;5048926;28;20140;-45
2023/02/12 03:22:03;;;;;;;2.92;1.00;;;;;;;8.16;72.28;102802.72;5048437;28;20045;-45
2023/02/12 03:24:35;;;;;;;7.32;1.58;;;;;;;8.15;72.24;102792.81;5048455;28;20059;-46
2023/02/12 03:27:08;;;;;;;3.05;1.10;;;;;;;8.15;72.37;102791.97;5053565;28;20135;-45
2023/02/12 03:29:36;;;;;;;1.30;0.82;;;;;;;8.14;72.32;102796.66;5048030;28;20045;-47
2023/02/12 03:32:14;;;;;;;5.72;1.08;;;;;;;8.13;72.38;102788.66;5048558;28;20064;-45
2023/02/12 03:34:50;;;;;;;1.15;0.88;;;;;;;8.14;72.33;102779.25;5048059;28;20040;-45
2023/02/12 03:37:29;;;;;;;1.58;0.88;;;;;;;8.14;72.27;102784.78;5048515;28;21060;-48
2023/02/12 03:40:26;;;;;;;2.88;0.80;;;;;;;8.14;72.32;102782.84;5015206;28;20834;-46
2023/02/12 03:42:59;;;;;;;2.78;0.93;;;;;;;8.15;72.28;102783.69;5052135;28;20107;-46
2023/02/12 03:45:51;;;;;;;3.83;0.90;;;;;;;8.15;72.22;102775.41;5052801;28;20083;-45
2023/02/12 03:48:24;;;;;;;1.73;0.85;;;;;;;8.13;72.48;102777.63;5042667;28;20056;-45
2023/02/12 03:50:58;;;;;;;3.72;1.02;;;;;;;8.13;72.30;102777.63;5049422;28;20045;-48
2023/02/12 03:53:27;;;;;;;1.52;0.80;;;;;;;8.13;72.39;102778.44;5043718;28;20086;-45
2023/02/12 03:56:11;;;;;;;1.38;0.88;;;;;;;8.13;72.43;102772.13;5051743;28;20045;-46
2023/02/12 03:58:40;;;;;;;3.10;1.42;;;;;;;8.14;72.42;102762.72;5051747;28;20045;-45
2023/02/12 04:01:07;;;;;;;2.72;0.73;;;;;;;8.14;72.41;102760.78;5063807;28;20056;-45
2023/02/12 04:03:35;;;;;;;2.22;1.27;;;;;;;8.14;72.37;102759.94;5075119;28;20040;-45
2023/02/12 04:06:01;;;;;;;5.03;1.27;;;;;;;8.14;72.47;102757.19;5071908;28;20053;-45
2023/02/12 04:08:29;;;;;;;6.20;0.98;;;;;;;8.14;72.60;102769.06;5071519;28;20453;-53
2023/02/12 04:11:43;;;;;;;1.23;0.85;;;;;;;8.14;72.56;102771.81;5071459;28;20493;-45
2023/02/12 04:14:49;;;;;;;1.35;0.60;;;;;;;8.14;72.42;102771.00;5059922;28;20135;-45
2023/02/12 04:17:31;;;;;;;1.80;0.75;;;;;;;8.13;72.42;102772.91;5072450;28;20054;-45
2023/02/12 04:20:04;;;;;;;2.42;0.77;;;;;;;8.12;72.44;102767.69;5071311;28;20118;-48
2023/02/12 04:23:10;;;;;;;4.63;0.85;;;;;;;8.13;72.45;102761.06;5071188;28;20059;-52
2023/02/12 04:26:31;;;;;;;5.30;0.82;;;;;;;8.12;72.60;102767.69;5071823;28;20379;-45
2023/02/12 04:29:12;;;;;;;2.80;0.70;;;;;;;8.12;72.63;102771.28;5008790;28;20054;-46
2023/02/12 04:31:58;;;;;;;1.92;0.77;;;;;;;8.12;72.78;102776.81;5008862;28;20077;-45
2023/02/12 04:34:38;;;;;;;1.02;0.77;;;;;;;8.11;72.68;102768.78;5042249;28;20077;-46
2023/02/12 04:37:44;;;;;;;0.93;0.60;;;;;;;8.09;72.84;102766.31;5071009;28;20453;-47
2023/02/12 04:40:13;;;;;;;1.80;0.75;;;;;;;8.09;72.75;102771.84;4972920;28;20050;-48
2023/02/12 04:42:46;;;;;;;2.53;0.88;;;;;;;8.09;73.02;102773.75;5055852;28;20036;-49
2023/02/12 04:45:14;;;;;;;;;;;;;;;8.08;72.96;102781.22;5071215;28;20052;-45
2023/02/12 04:47:40;;;;;;;2.42;0.80;;;;;;;8.08;73.05;102774.84;5070913;28;19931;-45
2023/02/12 04:50:08;;;;;;;1.85;0.82;;;;;;;8.09;73.17;102776.53;5071464;28;20098;-45
2023/02/12 04:52:34;;;;;;;2.35;0.90;;;;;;;8.08;73.20;102780.38;5066151;28;20306;-51
2023/02/12 04:55:01;;;;;;;2.33;1.70;;;;;;;8.08;73.27;102781.22;5070795;28;20055;-45
2023/02/12 04:57:28;;;;;;;4.65;1.60;;;;;;;8.08;73.36;102785.91;5070611;28;20135;-45
2023/02/12 04:59:55;;;;;;;2.40;0.80;;;;;;;8.08;73.51;102791.41;5071100;28;20510;-46
2023/02/12 05:02:22;;;;;;;2.30;0.93;;;;;;;8.08;73.52;102791.41;5070519;28;20079;-49
2023/02/12 05:04:49;;;;;;;2.63;1.35;;;;;;;8.07;73.49;102793.38;5070522;28;20068;-45
2023/02/12 05:07:16;;;;;;;4.28;1.17;;;;;;;8.07;73.83;102789.78;5070205;28;20603;-49
2023/02/12 05:09:43;;;;;;;2.13;1.00;;;;;;;8.06;73.75;102790.88;5071020;28;20520;-48
2023/02/12 05:12:10;;;;;;;2.17;1.35;;;;;;;8.06;73.92;102788.09;5070295;28;20044;-45
2023/02/12 05:14:36;;;;;;;2.03;0.90;;;;;;;8.05;74.11;102794.75;5070195;28;20508;-46
2023/02/12 05:17:03;;;;;;;1.42;0.93;;;;;;;8.05;74.06;102789.22;5070171;28;20044;-45
2023/02/12 05:19:30;;;;;;;1.48;1.08;;;;;;;8.03;74.14;102789.50;5070427;28;20048;-45
2023/02/12 05:21:57;;;;;;;1.88;1.13;;;;;;;8.03;74.25;102795.00;5070019;28;20518;-45
2023/02/12 05:24:24;;;;;;;0.85;0.80;;;;;;;8.02;74.28;102787.03;5069927;28;20056;-45
2023/02/12 05:26:51;;;;;;;3.03;1.10;;;;;;;8.03;74.35;102795.00;5070574;28;20048;-45
2023/02/12 05:29:18;;;;;;;3.85;1.33;;;;;;;8.04;74.64;102801.38;5051649;28;20391;-45
2023/02/12 05:31:45;;;;;;;2.63;1.05;;;;;;;8.03;74.52;102794.19;5070055;28;20044;-45
2023/02/12 05:34:12;;;;;;;0.70;0.65;;;;;;;8.03;74.69;102795.00;5070208;28;20040;-48
2023/02/12 05:36:39;;;;;;;4.47;1.10;;;;;;;8.02;74.74;102793.38;5038752;28;20082;-45
2023/02/12 05:39:06;;;;;;;2.47;0.57;;;;;;;8.02;74.88;102795.31;5069764;28;20505;-48
2023/02/12 05:41:36;;;;;;;2.60;0.50;;;;;;;8.02;75.01;102787.03;5070003;28;20440;-45
2023/02/12 05:44:05;;;;;;;1.17;0.60;;;;;;;8.03;75.02;102785.91;5069587;28;20071;-48
2023/02/12 05:46:32;;;;;;;5.00;1.00;;;;;;;8.02;75.06;102792.53;5069737;28;20049;-45
2023/02/12 05:48:59;;;;;;;1.50;0.75;;;;;;;7.98;75.26;102782.06;5069416;28;20498;-45
2023/02/12 05:51:26;;;;;;;1.65;1.10;;;;;;;7.97;75.47;102785.91;5062267;28;20048;-45
2023/02/12 05:54:02;;;;;;;1.95;0.63;;;;;;;7.98;75.56;102786.75;5064420;28;20135;-45
2023/02/12 05:56:42;;;;;;;1.88;0.55;;;;;;;7.98;75.38;102784.00;5051666;28;20048;-45
2023/02/12 05:59:15;;;;;;;2.83;0.80;;;;;;;7.98;75.57;102789.50;5069891;28;20071;-45
2023/02/12 06:01:44;;;;;;;2.45;0.60;;;;;;;7.97;75.67;102785.91;5050398;28;20048;-45
2023/02/12 06:04:22;;;;;;;0.70;0.60;;;;;;;7.97;75.66;102780.41;5068338;28;20494;-45
2023/02/12 06:06:51;;;;;;;0.70;0.68;;;;;;;7.98;75.81;102787.59;5069579;28;20056;-45
2023/02/12 06:09:18;;;;;;;5.07;0.80;;;;;;;7.98;75.89;102787.59;5068992;28;20058;-45
2023/02/12 06:11:45;;;;;;;1.85;0.90;;;;;;;7.98;75.97;102787.59;5068939;28;20152;-45
2023/02/12 06:14:15;;;;;;;1.98;1.00;;;;;;;7.99;75.90;102778.19;5060432;28;20401;-45
2023/02/12 06:16:50;;;;;;;1.48;0.90;;;;;;;7.98;75.96;102776.53;5065929;28;20088;-45
2023/02/12 06:19:18;;;;;;;2.72;0.98;;;;;;;7.99;76.05;102774.63;5069492;28;20135;-45
2023/02/12 06:21:45;;;;;;;2.60;0.90;;;;;;;7.99;76.13;102774.63;5068834;28;20047;-45
2023/02/12 06:24:13;;;;;;;1.67;1.27;;;;;;;7.99;76.20;102772.66;5069017;28;20151;-46
2023/02/12 06:26:41;;;;;;;2.15;1.02;;;;;;;8.01;76.49;102774.34;5068656;28;20045;-53
2023/02/12 06:29:09;;;;;;;1.48;1.30;;;;;;;7.99;76.60;102772.66;5067342;28;20520;-45
2023/02/12 06:31:36;;;;;;;1.20;0.75;;;;;;;7.98;76.57;102771.03;5068803;28;20072;-53
2023/02/12 06:34:08;;;;;;;1.33;1.15;;;;;;;7.98;76.66;102776.53;5076296;28;20050;-45
2023/02/12 06:36:37;;;;;;;1.80;0.75;;;;;;;7.98;76.67;102771.03;5069255;28;20106;-45
2023/02/12 06:39:04;;;;;;;2.70;1.25;;;;;;;7.98;76.71;102764.69;5069059;28;20044;-45
2023/02/12 06:41:31;;;;;;;0.73;0.43;;;;;;;7.97;76.83;102766.59;5055526;28;20128;-45
2023/02/12 06:43:58;;;;;;;3.28;0.80;;;;;;;7.98;76.84;102775.72;5068714;28;20044;-45
2023/02/12 06:46:24;;;;;;;2.83;0.77;;;;;;;7.97;76.92;102771.28;5067295;28;20131;-46
2023/02/12 06:48:56;;;;;;;3.88;0.70;;;;;;;7.97;77.04;102768.53;5068704;28;20044;-48
2023/02/12 06:51:24;;;;;;;1.50;1.38;;;;;;;7.97;77.18;102761.09;5069224;28;20135;-53
2023/02/12 06:53:52;;;;;;;3.10;0.88;;;;;;;7.97;76.94;102763.84;5048478;28;20084;-46
2023/02/12 06:56:20;;;;;;;5.85;1.20;;;;;;;7.95;77.14;102756.97;5068836;28;20044;-46
2023/02/12 06:58:56;;;;;;;1.83;1.50;;;;;;;7.95;77.22;102760.56;5068680;28;20144;-45
2023/02/12 07:01:26;;;;;;;2.95;0.57;;;;;;;7.94;77.27;102756.13;5068389;28;20049;-47
2023/02/12 07:03:56;;;;;;;1.33;0.70;;;;;;;7.94;77.11;102750.63;5068830;28;20056;-47
2023/02/12 07:06:24;;;;;;;1.73;0.75;;;;;;;7.92;77.32;102755.59;5068414;28;20132;-45
2023/02/12 07:08:51;;;;;;;1.10;0.73;;;;;;;7.92;77.32;102755.59;5047491;28;20053;-45
2023/02/12 07:11:22;;;;;;;5.25;1.30;;;;;;;7.92;77.40;102758.34;5059885;28;20078;-46
2023/02/12 07:13:49;;;;;;;0.47;0.47;;;;;;;7.91;77.42;102756.72;5068892;28;20036;-45
2023/02/12 07:16:17;;;;;;;3.70;0.80;;;;;;;7.90;77.50;102763.31;5074101;28;20044;-46
2023/02/12 07:18:44;;;;;;;2.15;0.50;;;;;;;7.91;77.18;102761.41;5075315;28;20091;-45
2023/02/12 07:21:13;;;;;;;3.60;0.40;;;;;;;7.92;77.36;102763.03;5075058;28;20040;-45
2023/02/12 07:23:41;;;;;;;1.65;0.77;;;;;;;7.92;77.56;102763.84;5075253;28;20555;-46
2023/02/12 07:26:11;;;;;;;2.20;1.45;;;;;;;7.91;77.42;102767.75;5075515;28;20494;-48
2023/02/12 07:28:39;;;;;;;1.27;0.50;;;;;;;7.91;77.64;102772.44;5074725;28;20136;-45
2023/02/12 07:31:08;;;;;;;2.33;0.70;;;;;;;7.91;77.64;102770.50;5074870;28;20048;-45
2023/02/12 07:33:37;;;;;;;2.60;0.60;;;;;;;7.91;77.64;102776.00;5075207;28;20494;-45
2023/02/12 07:36:06;;;;;;;2.38;0.93;;;;;;;7.90;77.75;102773.53;5055069;28;20044;-46
2023/02/12 07:38:38;;;;;;;6.53;1.50;;;;;;;7.90;77.95;102779.88;5075045;28;20409;-45
2023/02/12 07:41:06;;;;;;;0.88;0.40;;;;;;;7.90;77.72;102779.03;5072986;28;20063;-45
2023/02/12 07:43:36;;;;;;;0.47;0.45;;;;;;;7.91;77.85;102791.72;5061812;28;20045;-46
2023/02/12 07:46:12;;;;;;;3.22;0.93;;;;;;;7.89;77.92;102792.00;5074262;28;20448;-45
2023/02/12 07:48:39;;;;;;;1.23;0.43;;;;;;;7.91;77.93;102789.81;5075441;28;20044;-45
2023/02/12 07:51:08;;;;;;;0.90;0.50;;;;;;;7.91;78.06;102783.47;5053325;28;20510;-46
2023/02/12 07:53:35;;;;;;;2.25;0.40;;;;;;;7.92;77.99;102790.59;5066404;28;20075;-46
2023/02/12 07:56:17;;;;;;;1.63;0.47;;;;;;;7.91;78.18;102792.56;5074832;28;20048;-46
2023/02/12 07:58:45;;;;;;;0.60;0.40;;;;;;;7.91;78.09;102797.25;5074656;28;20406;-46
2023/02/12 08:01:12;;;;;;;3.63;0.93;;;;;;;7.92;78.00;102793.38;5074600;28;20143;-47
2023/02/12 08:03:39;;;;;;;1.02;0.35;;;;;;;7.91;78.22;102791.72;5074028;28;20518;-46
2023/02/12 08:06:13;;;;;;;2.63;0.40;;;;;;;7.91;77.94;102803.59;5074689;28;20040;-45
2023/02/12 08:08:40;;;;;;;2.08;0.70;;;;;;;7.93;78.26;102806.91;5074294;28;20140;-47
2023/02/12 08:11:09;;;;;;;7.15;2.58;;;;;;;7.93;78.43;102809.66;5074177;28;20091;-47
2023/02/12 08:13:37;;;;;;;3.58;3.30;;;;;;;7.93;78.25;102815.16;5074384;28;20067;-46
2023/02/12 08:16:07;;;;;;;3.60;3.30;;;;;;;7.94;78.29;102814.03;5075196;28;20388;-47
2023/02/12 08:18:34;;;;;;;0.93;0.93;;;;;;;7.95;78.37;102806.59;5074152;28;20037;-52
2023/02/12 08:21:17;;;;;;;1.45;0.80;;;;;;;7.95;78.53;102810.19;5074290;28;20417;-45
2023/02/12 08:23:44;;;;;;;2.70;0.95;;;;;;;7.96;78.41;102811.88;5073913;28;20059;-46
2023/02/12 08:26:17;;;;;;;1.42;0.65;;;;;;;7.97;78.41;102816.25;5073285;28;20068;-47
2023/02/12 08:28:50;;;;;;;1.35;1.15;;;;;;;7.99;78.52;102811.28;5070886;28;20151;-45
2023/02/12 08:31:20;;;;;;;5.28;0.70;;;;;;;8.00;78.46;102803.84;5071273;28;20462;-46
2023/02/12 08:33:50;;;;;;;3.67;0.60;;;;;;;8.02;78.54;102814.63;5071469;28;20057;-46
2023/02/12 08:36:23;;;;;;;4.38;1.10;;;;;;;8.03;78.55;102822.59;5070685;28;20056;-45
2023/02/12 08:38:50;;;;;;;5.13;0.93;;;;;;;8.05;78.48;102814.88;5047406;28;20076;-46
2023/02/12 08:41:25;;;;;;;1.65;0.70;;;;;;;8.07;78.56;102820.13;5067425;28;20048;-50
2023/02/12 08:43:54;;;;;;;0.93;0.60;;;;;;;8.09;78.48;102820.66;5070666;28;20503;-45
2023/02/12 08:46:24;;;;;;;4.50;0.95;;;;;;;8.08;78.65;102810.72;5069455;28;20071;-46
2023/02/12 08:48:56;;;;;;;5.03;0.80;;;;;;;8.10;78.49;102808.53;5070722;28;20044;-46
2023/02/12 08:51:26;;;;;;;3.05;1.15;;;;;;;8.12;78.45;102804.38;5066508;28;20506;-48
2023/02/12 08:53:58;;;;;;;2.65;0.60;;;;;;;8.14;78.39;102801.34;5070287;28;20135;-46
2023/02/12 08:56:26;;;;;;;2.63;0.70;;;;;;;8.14;78.60;102795.81;5070698;28;20494;-46
2023/02/12 08:58:52;;;;;;;3.15;0.45;;;;;;;8.13;78.66;102800.50;5070232;28;20516;-46
2023/02/12 09:01:22;;;;;;;1.90;0.80;;;;;;;8.15;78.43;102808.53;5070390;28;20080;-48
2023/02/12 09:03:50;;;;;;;4.28;0.90;;;;;;;8.19;78.55;102801.31;5070242;28;20049;-45
2023/02/12 09:06:19;;;;;;;19.38;3.20;;;;;;;8.22;78.62;102803.53;5071221;28;20076;-46
2023/02/12 09:08:46;;;;;;;5.75;2.38;;;;;;;8.25;78.46;102802.97;5069516;28;20482;-46
2023/02/12 09:11:16;;;;;;;1.65;0.90;;;;;;;8.26;78.49;102801.88;5068424;28;20147;-46
2023/02/12 09:13:44;;;;;;;3.90;1.15;;;;;;;8.27;78.54;102807.13;5069426;28;20174;-46
2023/02/12 09:16:12;;;;;;;1.48;0.80;;;;;;;8.30;78.55;102808.50;5069723;28;20048;-46
2023/02/12 09:18:39;;;;;;;5.40;2.05;;;;;;;8.33;78.56;102805.19;5061399;28;20083;-47
2023/02/12 09:21:12;;;;;;;7.75;2.35;;;;;;;8.34;78.50;102799.38;5053659;28;20135;-47
2023/02/12 09:23:39;;;;;;;5.55;2.20;;;;;;;8.39;78.33;102798.56;5052321;28;20054;-46
2023/02/12 09:26:09;;;;;;;9.23;1.73;;;;;;;8.41;78.61;102791.66;5070284;28;20044;-45
2023/02/12 09:28:37;;;;;;;5.85;1.48;;;;;;;8.43;78.40;102796.88;5063108;28;20071;-46
2023/02/12 09:31:10;;;;;;;2.40;1.30;;;;;;;8.44;78.33;102795.78;5054634;28;20037;-52
2023/02/12 09:33:37;;;;;;;3.95;1.10;;;;;;;8.47;78.43;102790.50;5070099;28;20055;-46
2023/02/12 09:36:07;;;;;;;3.13;1.00;;;;;;;8.50;78.43;102786.34;5069411;28;20127;-46
2023/02/12 09:38:34;;;;;;;6.43;1.50;;;;;;;8.51;78.34;102788.03;5069388;28;20049;-46
2023/02/12 09:41:14;;;;;;;3.40;1.50;;;;;;;8.52;78.30;102776.69;5070143;28;20048;-51
2023/02/12 09:44:08;;;;;;;3.55;1.05;;;;;;;8.55;78.18;102783.59;5069122;28;20051;-47
2023/02/12 09:47:05;;;;;;;4.13;1.13;;;;;;;8.57;78.17;102775.84;5069202;28;20045;-48
2023/02/12 09:49:53;;;;;;;6.03;1.45;;;;;;;8.57;78.14;102773.94;5065487;28;20696;-56
2023/02/12 09:52:25;;;;;;;3.65;1.00;;;;;;;8.61;78.04;102773.34;5055774;28;20044;-50
2023/02/12 09:54:52;;;;;;;;;;;;;;;8.59;78.04;102773.63;5062853;28;20053;-46
2023/02/12 09:57:30;;;;;;;3.38;2.22;;;;;;;8.61;77.96;102762.28;5049397;28;19920;-47
2023/02/12 10:00:02;;;;;;;5.18;2.28;;;;;;;8.60;77.85;102763.44;5064710;28;20088;-47
2023/02/12 10:02:29;;;;;;;3.13;1.55;;;;;;;8.62;77.99;102775.84;5065611;28;20129;-47
2023/02/12 10:04:57;;;;;;;3.78;1.60;;;;;;;8.63;77.77;102760.91;5066055;28;20584;-49
2023/02/12 10:07:36;;;;;;;6.03;1.45;;;;;;;8.64;77.73;102767.25;5063446;28;20124;-46
2023/02/12 10:10:28;;;;;;;6.63;2.97;;;;;;;8.65;77.65;102775.28;5055397;28;20055;-46
2023/02/12 10:13:10;;;;;;;6.27;1.70;;;;;;;8.68;77.51;102774.72;5054378;28;20083;-46
2023/02/12 10:16:00;;;;;;;5.45;1.63;;;;;;;8.70;77.32;102768.88;5062787;28;20556;-46
2023/02/12 10:18:32;;;;;;;7.82;2.05;;;;;;;8.74;77.46;102770.78;5067970;28;20135;-46
2023/02/12 10:21:14;;;;;;;;;;;;;;;8.78;77.17;102766.38;5069102;28;20124;-46
2023/02/12 10:24:11;;;;;;;9.63;1.90;;;;;;;8.82;76.92;102764.69;5069450;28;19928;-47
2023/02/12 10:26:43;;;;;;;5.63;1.63;;;;;;;8.88;76.82;102763.56;5069174;28;20293;-46
2023/02/12 10:29:23;;;;;;;6.70;1.77;;;;;;;8.91;76.63;102762.97;5069324;28;20139;-46
2023/02/12 10:31:56;;;;;;;5.88;1.60;;;;;;;8.94;76.51;102767.13;5069224;28;20785;-47
2023/02/12 10:34:40;;;;;;;3.38;1.60;;;;;;;8.97;76.17;102767.38;5068929;28;20037;-48
2023/02/12 10:37:36;;;;;;;6.25;1.45;;;;;;;8.97;75.88;102767.38;5068742;28;20501;-47
2023/02/12 10:40:31;;;;;;;4.38;2.47;;;;;;;8.99;75.78;102765.16;5061001;28;20052;-47
2023/02/12 10:43:00;;;;;;;4.63;1.70;;;;;;;8.99;75.51;102762.38;5048994;28;20086;-47
2023/02/12 10:45:38;;;;;;;5.93;2.13;;;;;;;9.01;75.53;102756.56;5061249;28;20052;-47
2023/02/12 10:48:08;;;;;;;7.50;2.83;;;;;;;9.01;75.12;102762.09;5068518;28;20102;-47
2023/02/12 10:50:41;;;;;;;14.85;4.30;;;;;;;9.03;74.81;102763.44;5062807;28;20067;-48
2023/02/12 10:53:20;;;;;;;10.70;5.47;;;;;;;9.06;74.64;102753.75;5068699;28;20139;-48
2023/02/12 10:55:47;;;;;;;13.80;4.95;;;;;;;9.13;74.45;102763.38;5068346;28;20288;-47
2023/02/12 10:58:20;;;;;;;6.88;3.47;;;;;;;9.19;74.22;102756.72;5068767;28;20049;-51
2023/02/12 11:00:59;;;;;;;12.30;4.05;;;;;;;9.26;73.85;102763.88;5046799;28;20044;-48
2023/02/12 11:03:36;;;;;;;6.63;2.67;;;;;;;9.29;73.75;102757.78;5061804;28;20432;-48
2023/02/12 11:06:16;;;;;;;7.30;3.88;;;;;;;9.37;73.79;102768.22;5047792;28;20072;-46
2023/02/12 11:08:43;;;;;;;9.32;3.33;;;;;;;9.42;73.46;102757.13;5065359;28;20438;-46
2023/02/12 11:11:19;;;;;;;5.03;2.67;;;;;;;9.42;73.21;102751.59;5068155;28;20477;-53
2023/02/12 11:13:53;;;;;;;6.93;3.25;;;;;;;9.45;73.18;102740.75;5068240;28;20413;-46
2023/02/12 11:16:32;;;;;;;9.73;5.18;;;;;;;9.49;72.96;102741.00;5068105;28;20052;-48
2023/02/12 11:19:16;;;;;;;9.77;3.42;;;;;;;9.52;72.99;102745.97;5068124;28;20140;-49
2023/02/12 11:21:43;;;;;;;4.03;2.95;;;;;;;9.51;72.80;102744.31;5068110;28;20394;-47
2023/02/12 11:24:30;;;;;;;4.00;2.40;;;;;;;9.51;72.53;102745.13;5068665;28;20097;-46
2023/02/12 11:27:10;;;;;;;7.53;4.20;;;;;;;9.52;72.51;102746.78;5055313;28;20481;-47
2023/02/12 11:29:38;;;;;;;9.45;3.58;;;;;;;9.52;72.33;102734.91;5067796;28;20056;-46
2023/02/12 11:32:07;;;;;;;7.63;3.70;;;;;;;9.54;72.30;102740.97;5068451;28;20063;-46
2023/02/12 11:34:35;;;;;;;2.67;2.00;;;;;;;9.53;71.91;102731.84;5068031;28;20479;-47
2023/02/12 11:37:03;;;;;;;4.68;2.35;;;;;;;9.56;72.18;102733.19;5040866;28;20053;-49
2023/02/12 11:39:36;;;;;;;3.63;2.28;;;;;;;9.56;71.85;102741.50;5054352;28;20524;-49
2023/02/12 11:42:15;;;;;;;4.40;2.20;;;;;;;9.65;72.01;102737.00;5076720;28;20564;-48
2023/02/12 11:44:47;;;;;;;5.68;2.53;;;;;;;9.66;71.77;102720.09;5068469;28;20390;-47
2023/02/12 11:47:22;;;;;;;;;;;;;;;9.64;71.84;102718.75;5062169;28;20079;-50
2023/02/12 11:50:01;;;;;;;6.53;3.67;;;;;;;9.67;71.96;102715.41;5068023;28;20452;-46
2023/02/12 11:52:34;;;;;;;6.15;3.42;;;;;;;9.70;71.95;102712.88;5067710;28;20036;-47
2023/02/12 11:55:17;;;;;;;7.57;3.30;;;;;;;9.74;71.86;102718.66;5067867;28;20048;-47
2023/02/12 11:57:50;;;;;;;4.40;3.15;;;;;;;9.74;71.66;102721.44;5068475;28;20028;-47
2023/02/12 12:00:20;;;;;;;6.75;3.63;;;;;;;9.71;71.77;102717.31;5067585;28;20067;-50
2023/02/12 12:03:11;;;;;;;4.65;3.13;;;;;;;9.74;71.75;102716.69;5052027;28;20052;-46